createdAt,value
2018-02-17T00:01:05.417Z,963.08
2018-02-17T00:02:05.421Z,963.09
2018-02-17T00:03:58.813Z,963.08
2018-02-17T00:04:58.799Z,963.06
2018-02-17T00:06:52.220Z,963.00
2018-02-17T00:07:52.223Z,962.97
2018-02-17T00:09:45.623Z,962.97
2018-02-17T00:10:45.603Z,962.95
2018-02-17T00:12:38.984Z,962.93
2018-02-17T00:13:38.985Z,962.94
2018-02-17T00:15:32.385Z,962.91
2018-02-17T00:16:32.369Z,962.87
2018-02-17T00:18:25.759Z,962.87
2018-02-17T00:19:25.760Z,962.86
2018-02-17T00:21:19.157Z,962.81
2018-02-17T00:22:19.142Z,962.81
2018-02-17T00:24:12.521Z,962.89
2018-02-17T00:25:12.522Z,962.89
2018-02-17T00:27:05.944Z,962.81
2018-02-17T00:28:05.905Z,962.84
2018-02-17T00:29:59.309Z,962.79
2018-02-17T00:30:59.285Z,962.77
2018-02-17T00:32:52.666Z,962.74
2018-02-17T00:33:52.668Z,962.74
2018-02-17T00:35:46.076Z,962.69
2018-02-17T00:36:46.059Z,962.66
2018-02-17T00:38:39.442Z,962.71
2018-02-17T00:39:39.440Z,962.76
2018-02-17T00:41:32.838Z,962.77
2018-02-17T00:42:32.823Z,962.76
2018-02-17T00:44:26.246Z,962.76
2018-02-17T00:45:26.249Z,962.75
2018-02-17T00:47:19.646Z,962.74
2018-02-17T00:48:19.627Z,962.74
2018-02-17T00:50:13.011Z,962.73
2018-02-17T00:51:13.010Z,962.68
2018-02-17T00:53:06.409Z,962.66
2018-02-17T00:54:06.392Z,962.67
2018-02-17T00:55:59.773Z,962.64
2018-02-17T00:56:59.783Z,962.62
2018-02-17T00:58:53.171Z,962.62
2018-02-17T00:59:53.155Z,962.58
2018-02-17T01:01:46.534Z,962.54
2018-02-17T01:02:46.536Z,962.53
2018-02-17T01:04:39.936Z,962.48
2018-02-17T01:05:39.918Z,962.45
2018-02-17T01:07:33.312Z,962.43
2018-02-17T01:08:33.311Z,962.48
2018-02-17T01:10:26.711Z,962.44
2018-02-17T01:11:26.693Z,962.45
2018-02-17T01:13:20.072Z,962.32
2018-02-17T01:14:20.074Z,962.31
2018-02-17T01:16:12.980Z,962.19
2018-02-17T01:17:12.966Z,962.20
2018-02-17T01:19:06.367Z,962.13
2018-02-17T01:20:06.339Z,962.15
2018-02-17T01:21:59.716Z,962.09
2018-02-17T01:22:59.719Z,962.13
2018-02-17T01:24:53.115Z,962.12
2018-02-17T01:25:53.097Z,962.05
2018-02-17T01:27:46.479Z,962.01
2018-02-17T01:28:46.478Z,961.99
2018-02-17T01:30:39.875Z,961.98
2018-02-17T01:31:39.859Z,962.00
2018-02-17T01:33:33.269Z,961.99
2018-02-17T01:34:33.272Z,962.00
2018-02-17T01:36:26.671Z,962.03
2018-02-17T01:37:26.654Z,962.01
2018-02-17T01:39:20.032Z,962.04
2018-02-17T01:40:20.033Z,962.02
2018-02-17T01:42:13.431Z,962.01
2018-02-17T01:43:13.412Z,962.00
2018-02-17T01:45:06.793Z,962.01
2018-02-17T01:46:06.794Z,962.00
2018-02-17T01:47:59.696Z,961.95
2018-02-17T01:48:59.678Z,961.91
2018-02-17T01:50:53.057Z,961.89
2018-02-17T01:51:53.056Z,961.87
2018-02-17T01:53:46.455Z,961.86
2018-02-17T01:54:46.440Z,961.82
2018-02-17T01:56:39.841Z,961.74
2018-02-17T01:57:39.820Z,961.72
2018-02-17T01:59:33.198Z,961.63
2018-02-17T02:00:33.198Z,961.58
2018-02-17T02:02:26.597Z,961.53
2018-02-17T02:03:26.578Z,961.51
2018-02-17T02:05:19.966Z,961.47
2018-02-17T02:06:19.966Z,961.41
2018-02-17T02:08:13.378Z,961.34
2018-02-17T02:09:13.352Z,961.33
2018-02-17T02:11:06.732Z,961.27
2018-02-17T02:12:06.732Z,961.25
2018-02-17T02:14:00.133Z,961.18
2018-02-17T02:15:00.112Z,961.14
2018-02-17T02:16:53.487Z,961.07
2018-02-17T02:17:53.489Z,961.05
2018-02-17T02:19:46.889Z,961.07
2018-02-17T02:20:46.870Z,961.13
2018-02-17T02:22:40.245Z,961.07
2018-02-17T02:23:40.249Z,961.07
2018-02-17T02:25:33.646Z,961.00
2018-02-17T02:26:33.625Z,960.95
2018-02-17T02:28:27.027Z,960.87
2018-02-17T02:29:27.006Z,960.86
2018-02-17T02:31:20.409Z,960.72
2018-02-17T02:32:20.384Z,960.66
2018-02-17T02:34:13.786Z,960.56
2018-02-17T02:35:13.765Z,960.51
2018-02-17T02:37:07.142Z,960.41
2018-02-17T02:38:07.143Z,960.39
2018-02-17T02:40:00.542Z,960.30
2018-02-17T02:41:00.523Z,960.32
2018-02-17T02:42:53.913Z,960.22
2018-02-17T02:43:53.910Z,960.20
2018-02-17T02:45:47.305Z,960.24
2018-02-17T02:46:47.289Z,960.27
2018-02-17T02:48:40.668Z,960.32
2018-02-17T02:49:40.667Z,960.32
2018-02-17T02:51:34.065Z,960.33
2018-02-17T02:52:34.051Z,960.34
2018-02-17T02:54:27.420Z,960.32
2018-02-17T02:55:27.429Z,960.36
2018-02-17T02:57:20.824Z,960.47
2018-02-17T02:58:20.801Z,960.57
2018-02-17T03:00:14.180Z,960.64
2018-02-17T03:01:14.180Z,960.67
2018-02-17T03:03:07.582Z,960.67
2018-02-17T03:04:07.558Z,960.70
2018-02-17T03:06:00.936Z,960.67
2018-02-17T03:07:00.935Z,960.68
2018-02-17T03:08:54.345Z,960.54
2018-02-17T03:09:54.324Z,960.55
2018-02-17T03:11:47.702Z,960.50
2018-02-17T03:12:47.706Z,960.53
2018-02-17T03:14:41.101Z,960.52
2018-02-17T03:15:41.079Z,960.57
2018-02-17T03:17:34.034Z,960.52
2018-02-17T03:18:33.961Z,960.48
2018-02-17T03:20:27.338Z,960.38
2018-02-17T03:21:27.339Z,960.31
2018-02-17T03:23:20.736Z,960.29
2018-02-17T03:24:20.731Z,960.28
2018-02-17T03:26:14.095Z,960.29
2018-02-17T03:27:14.095Z,960.32
2018-02-17T03:29:07.492Z,960.34
2018-02-17T03:30:07.476Z,960.35
2018-02-17T03:32:00.850Z,960.31
2018-02-17T03:33:00.849Z,960.27
2018-02-17T03:34:54.308Z,960.23
2018-02-17T03:35:54.288Z,960.21
2018-02-17T03:37:47.169Z,960.27
2018-02-17T03:38:47.169Z,960.27
2018-02-17T03:40:40.570Z,960.26
2018-02-17T03:41:40.549Z,960.30
2018-02-17T03:43:33.926Z,960.30
2018-02-17T03:44:33.925Z,960.26
2018-02-17T03:46:27.323Z,960.27
2018-02-17T03:47:27.310Z,960.21
2018-02-17T03:49:20.682Z,960.16
2018-02-17T03:50:20.683Z,960.10
2018-02-17T03:52:14.084Z,960.07
2018-02-17T03:53:14.059Z,960.01
2018-02-17T03:55:07.468Z,959.98
2018-02-17T03:56:07.438Z,959.92
2018-02-17T03:58:00.814Z,959.93
2018-02-17T03:59:00.816Z,959.89
2018-02-17T04:00:54.211Z,959.88
2018-02-17T04:01:54.193Z,959.89
2018-02-17T04:03:47.572Z,959.84
2018-02-17T04:04:47.572Z,959.81
2018-02-17T04:06:40.971Z,959.70
2018-02-17T04:07:40.949Z,959.58
2018-02-17T04:09:34.324Z,959.49
2018-02-17T04:10:34.326Z,959.47
2018-02-17T04:12:27.726Z,959.44
2018-02-17T04:13:27.704Z,959.43
2018-02-17T04:15:21.084Z,959.48
2018-02-17T04:16:21.081Z,959.49
2018-02-17T04:18:14.479Z,959.47
2018-02-17T04:19:14.458Z,959.43
2018-02-17T04:21:07.834Z,959.41
2018-02-17T04:22:07.836Z,959.44
2018-02-17T04:24:01.300Z,959.30
2018-02-17T04:25:01.279Z,959.25
2018-02-17T04:26:54.658Z,959.23
2018-02-17T04:27:54.660Z,959.30
2018-02-17T04:29:48.054Z,959.51
2018-02-17T04:30:48.034Z,959.54
2018-02-17T04:32:41.421Z,959.62
2018-02-17T04:33:41.422Z,959.61
2018-02-17T04:35:34.819Z,959.50
2018-02-17T04:36:34.798Z,959.47
2018-02-17T04:38:28.187Z,959.41
2018-02-17T04:39:28.186Z,959.39
2018-02-17T04:41:21.583Z,959.24
2018-02-17T04:42:21.563Z,959.21
2018-02-17T04:44:14.960Z,959.09
2018-02-17T04:45:14.940Z,959.10
2018-02-17T04:47:08.321Z,958.93
2018-02-17T04:48:08.321Z,958.88
2018-02-17T04:50:01.721Z,958.92
2018-02-17T04:51:01.702Z,958.93
2018-02-17T04:52:55.075Z,958.88
2018-02-17T04:53:55.076Z,958.82
2018-02-17T04:55:48.476Z,958.68
2018-02-17T04:56:48.459Z,958.63
2018-02-17T04:58:41.339Z,958.56
2018-02-17T04:59:41.333Z,958.54
2018-02-17T05:01:34.734Z,958.49
2018-02-17T05:02:34.709Z,958.39
2018-02-17T05:04:28.110Z,958.32
2018-02-17T05:05:28.087Z,958.34
2018-02-17T05:07:21.464Z,958.54
2018-02-17T05:08:21.465Z,958.61
2018-02-17T05:10:14.863Z,958.66
2018-02-17T05:11:14.841Z,958.68
2018-02-17T05:13:08.230Z,958.70
2018-02-17T05:14:08.227Z,958.71
2018-02-17T05:16:01.625Z,958.74
2018-02-17T05:17:01.603Z,958.74
2018-02-17T05:18:54.979Z,958.78
2018-02-17T05:19:54.978Z,958.76
2018-02-17T05:21:48.374Z,958.81
2018-02-17T05:22:48.353Z,958.82
2018-02-17T05:24:41.237Z,958.80
2018-02-17T05:25:41.237Z,958.79
2018-02-17T05:27:34.634Z,958.67
2018-02-17T05:28:34.612Z,958.66
2018-02-17T05:30:28.029Z,958.66
2018-02-17T05:31:27.988Z,958.64
2018-02-17T05:33:21.365Z,958.62
2018-02-17T05:34:21.365Z,958.58
2018-02-17T05:36:14.764Z,958.47
2018-02-17T05:37:14.741Z,958.40
2018-02-17T05:39:07.632Z,958.35
2018-02-17T05:40:07.622Z,958.37
2018-02-17T05:42:01.017Z,958.33
2018-02-17T05:43:01.000Z,958.43
2018-02-17T05:44:53.879Z,958.40
2018-02-17T05:45:53.878Z,958.33
2018-02-17T05:47:47.273Z,958.29
2018-02-17T05:48:47.254Z,958.23
2018-02-17T05:50:40.633Z,958.21
2018-02-17T05:51:40.632Z,958.19
2018-02-17T05:53:34.030Z,958.11
2018-02-17T05:54:34.008Z,958.13
2018-02-17T05:56:27.395Z,958.07
2018-02-17T05:57:27.396Z,958.02
2018-02-17T05:59:20.802Z,957.95
2018-02-17T06:00:20.785Z,957.90
2018-02-17T06:02:14.159Z,957.88
2018-02-17T06:03:14.158Z,957.83
2018-02-17T06:05:07.561Z,957.92
2018-02-17T06:06:07.533Z,957.93
2018-02-17T06:08:00.910Z,957.84
2018-02-17T06:09:00.911Z,957.76
2018-02-17T06:10:54.306Z,957.77
2018-02-17T06:11:54.292Z,957.76
2018-02-17T06:13:47.731Z,957.70
2018-02-17T06:14:47.673Z,957.72
2018-02-17T06:16:41.040Z,957.72
2018-02-17T06:17:41.040Z,957.75
2018-02-17T06:19:34.456Z,957.80
2018-02-17T06:20:34.418Z,957.85
2018-02-17T06:22:27.794Z,957.89
2018-02-17T06:23:27.794Z,957.89
2018-02-17T06:25:21.188Z,957.99
2018-02-17T06:26:21.171Z,957.98
2018-02-17T06:28:14.547Z,957.98
2018-02-17T06:29:14.547Z,957.99
2018-02-17T06:31:07.943Z,958.06
2018-02-17T06:32:07.922Z,958.03
2018-02-17T06:34:01.297Z,958.07
2018-02-17T06:35:01.299Z,958.04
2018-02-17T06:36:54.696Z,958.03
2018-02-17T06:37:54.676Z,958.03
2018-02-17T06:39:48.051Z,957.96
2018-02-17T06:40:48.051Z,957.97
2018-02-17T06:42:41.448Z,957.96
2018-02-17T06:43:41.428Z,957.94
2018-02-17T06:45:34.806Z,957.90
2018-02-17T06:46:34.806Z,957.91
2018-02-17T06:48:28.203Z,957.84
2018-02-17T06:49:28.183Z,957.80
2018-02-17T06:51:21.562Z,957.75
2018-02-17T06:52:21.560Z,957.76
2018-02-17T06:54:14.958Z,957.67
2018-02-17T06:55:14.939Z,957.65
2018-02-17T06:57:08.325Z,957.59
2018-02-17T06:58:08.324Z,957.53
2018-02-17T07:00:01.726Z,957.51
2018-02-17T07:01:01.702Z,957.50
2018-02-17T07:02:55.133Z,957.44
2018-02-17T07:03:55.088Z,957.46
2018-02-17T07:05:48.484Z,957.41
2018-02-17T07:06:48.462Z,957.37
2018-02-17T07:08:41.864Z,957.27
2018-02-17T07:09:41.844Z,957.22
2018-02-17T07:11:35.217Z,957.21
2018-02-17T07:12:35.215Z,957.23
2018-02-17T07:14:28.617Z,957.29
2018-02-17T07:15:28.596Z,957.29
2018-02-17T07:17:21.974Z,957.34
2018-02-17T07:18:21.972Z,957.28
2018-02-17T07:20:15.370Z,957.20
2018-02-17T07:21:15.347Z,957.19
2018-02-17T07:23:08.725Z,957.20
2018-02-17T07:24:08.767Z,957.18
2018-02-17T07:26:02.122Z,957.19
2018-02-17T07:27:02.102Z,957.20
2018-02-17T07:28:55.480Z,957.22
2018-02-17T07:29:55.481Z,957.20
2018-02-17T07:31:48.888Z,957.21
2018-02-17T07:32:48.865Z,957.20
2018-02-17T07:34:42.242Z,957.11
2018-02-17T07:35:42.245Z,957.24
2018-02-17T07:37:35.645Z,957.22
2018-02-17T07:38:35.623Z,957.14
2018-02-17T07:40:29.002Z,957.08
2018-02-17T07:41:29.004Z,957.08
2018-02-17T07:43:22.413Z,957.05
2018-02-17T07:44:22.390Z,957.00
2018-02-17T07:46:15.769Z,956.87
2018-02-17T07:47:15.768Z,956.86
2018-02-17T07:49:09.166Z,956.79
2018-02-17T07:50:09.147Z,956.80
2018-02-17T07:52:02.525Z,956.78
2018-02-17T07:53:02.522Z,956.80
2018-02-17T07:54:55.927Z,956.77
2018-02-17T07:55:55.901Z,956.81
2018-02-17T07:57:49.331Z,956.85
2018-02-17T07:58:49.282Z,956.83
2018-02-17T08:00:42.164Z,956.85
2018-02-17T08:01:42.160Z,956.88
2018-02-17T08:03:35.558Z,956.98
2018-02-17T08:04:35.538Z,956.99
2018-02-17T08:06:28.928Z,957.07
2018-02-17T08:07:28.927Z,957.11
2018-02-17T08:09:22.335Z,957.09
2018-02-17T08:10:22.314Z,957.07
2018-02-17T08:12:15.693Z,957.02
2018-02-17T08:13:15.694Z,956.97
2018-02-17T08:15:09.090Z,956.93
2018-02-17T08:16:09.070Z,956.95
2018-02-17T08:18:02.448Z,956.85
2018-02-17T08:19:02.451Z,956.86
2018-02-17T08:20:55.848Z,956.78
2018-02-17T08:21:55.869Z,956.72
2018-02-17T08:23:49.348Z,956.66
2018-02-17T08:24:49.343Z,956.64
2018-02-17T08:26:42.745Z,956.62
2018-02-17T08:27:42.784Z,956.62
2018-02-17T08:29:36.096Z,956.58
2018-02-17T08:30:36.202Z,956.60
2018-02-17T08:32:29.515Z,956.55
2018-02-17T08:33:29.487Z,956.57
2018-02-17T08:35:22.931Z,956.45
2018-02-17T08:36:22.870Z,956.50
2018-02-17T08:38:16.241Z,956.41
2018-02-17T08:39:16.292Z,956.44
2018-02-17T08:41:09.640Z,956.48
2018-02-17T08:42:09.646Z,956.48
2018-02-17T08:44:03.035Z,956.57
2018-02-17T08:45:03.009Z,956.52
2018-02-17T08:46:56.491Z,956.54
2018-02-17T08:47:56.432Z,956.56
2018-02-17T08:49:49.775Z,956.62
2018-02-17T08:50:49.807Z,956.59
2018-02-17T08:52:43.181Z,956.67
2018-02-17T08:53:43.186Z,956.72
2018-02-17T08:55:36.561Z,956.68
2018-02-17T08:56:36.553Z,956.73
2018-02-17T08:58:29.960Z,956.70
2018-02-17T08:59:29.910Z,956.70
2018-02-17T09:01:23.322Z,956.77
2018-02-17T09:02:23.326Z,956.71
2018-02-17T09:04:16.776Z,956.73
2018-02-17T09:05:16.741Z,956.69
2018-02-17T09:07:10.131Z,956.72
2018-02-17T09:08:10.136Z,956.73
2018-02-17T09:10:03.621Z,956.74
2018-02-17T09:11:03.510Z,956.75
2018-02-17T09:12:56.912Z,956.70
2018-02-17T09:13:56.911Z,956.74
2018-02-17T09:15:50.291Z,956.71
2018-02-17T09:16:50.312Z,956.71
2018-02-17T09:18:43.708Z,956.70
2018-02-17T09:19:43.647Z,956.66
2018-02-17T09:21:38.103Z,956.64
2018-02-17T09:22:38.023Z,956.64
2018-02-17T09:24:32.443Z,956.62
2018-02-17T09:25:32.424Z,956.61
2018-02-17T09:27:25.795Z,956.57
2018-02-17T09:28:25.817Z,956.56
2018-02-17T09:30:20.232Z,956.55
2018-02-17T09:31:20.192Z,956.54
2018-02-17T09:33:13.575Z,956.49
2018-02-17T09:34:13.572Z,956.43
2018-02-17T09:36:06.972Z,956.36
2018-02-17T09:37:06.955Z,956.35
2018-02-17T09:39:00.327Z,956.32
2018-02-17T09:40:00.340Z,956.31
2018-02-17T09:41:53.730Z,956.31
2018-02-17T09:42:53.715Z,956.30
2018-02-17T09:44:47.089Z,956.27
2018-02-17T09:45:47.089Z,956.26
2018-02-17T09:47:40.501Z,956.22
2018-02-17T09:48:40.483Z,956.15
2018-02-17T09:50:33.862Z,956.08
2018-02-17T09:51:33.863Z,956.06
2018-02-17T09:53:27.292Z,956.05
2018-02-17T09:54:27.266Z,956.05
2018-02-17T09:56:20.766Z,956.01
2018-02-17T09:57:20.660Z,956.00
2018-02-17T09:59:14.040Z,956.13
2018-02-17T10:00:14.036Z,956.12
2018-02-17T10:02:07.446Z,956.07
2018-02-17T10:03:07.427Z,956.02
2018-02-17T10:05:00.808Z,956.00
2018-02-17T10:06:00.807Z,956.04
2018-02-17T10:07:54.207Z,956.08
2018-02-17T10:08:54.188Z,956.07
2018-02-17T10:10:47.566Z,955.96
2018-02-17T10:11:47.570Z,955.97
2018-02-17T10:13:40.967Z,955.96
2018-02-17T10:14:40.965Z,955.92
2018-02-17T10:16:34.330Z,955.98
2018-02-17T10:17:34.327Z,955.91
2018-02-17T10:19:27.782Z,955.89
2018-02-17T10:20:27.707Z,955.84
2018-02-17T10:22:21.093Z,955.86
2018-02-17T10:23:21.088Z,955.83
2018-02-17T10:25:14.488Z,955.81
2018-02-17T10:26:14.470Z,955.77
2018-02-17T10:28:07.883Z,955.76
2018-02-17T10:29:07.859Z,955.76
2018-02-17T10:31:01.277Z,955.72
2018-02-17T10:32:01.243Z,955.73
2018-02-17T10:33:54.678Z,955.71
2018-02-17T10:34:54.632Z,955.71
2018-02-17T10:36:49.015Z,955.82
2018-02-17T10:37:49.022Z,955.80
2018-02-17T10:39:42.424Z,955.76
2018-02-17T10:40:42.404Z,955.73
2018-02-17T10:42:36.779Z,955.77
2018-02-17T10:43:36.826Z,955.78
2018-02-17T10:45:30.190Z,955.74
2018-02-17T10:46:30.182Z,955.76
2018-02-17T10:48:23.589Z,955.75
2018-02-17T10:49:23.614Z,955.77
2018-02-17T10:51:16.972Z,955.79
2018-02-17T10:52:16.950Z,955.80
2018-02-17T10:54:10.360Z,955.83
2018-02-17T10:55:10.336Z,955.79
2018-02-17T10:57:03.738Z,955.81
2018-02-17T10:58:03.729Z,955.83
2018-02-17T10:59:57.108Z,955.76
2018-02-17T11:00:57.105Z,955.75
2018-02-17T11:02:50.500Z,955.76
2018-02-17T11:03:50.481Z,955.81
2018-02-17T11:05:43.859Z,955.80
2018-02-17T11:06:43.869Z,955.82
2018-02-17T11:08:37.295Z,955.76
2018-02-17T11:09:37.276Z,955.72
2018-02-17T11:11:30.654Z,955.77
2018-02-17T11:12:30.656Z,955.71
2018-02-17T11:14:24.064Z,955.65
2018-02-17T11:15:24.032Z,955.60
2018-02-17T11:17:17.433Z,955.67
2018-02-17T11:18:17.414Z,955.67
2018-02-17T11:20:10.795Z,955.69
2018-02-17T11:21:10.797Z,955.71
2018-02-17T11:23:06.197Z,955.64
2018-02-17T11:24:06.177Z,955.67
2018-02-17T11:25:59.559Z,955.70
2018-02-17T11:26:59.558Z,955.69
2018-02-17T11:28:52.988Z,955.67
2018-02-17T11:29:52.956Z,955.63
2018-02-17T11:31:46.333Z,955.66
2018-02-17T11:32:46.341Z,955.66
2018-02-17T11:34:39.752Z,955.66
2018-02-17T11:35:39.794Z,955.68
2018-02-17T11:37:33.134Z,955.64
2018-02-17T11:38:33.097Z,955.62
2018-02-17T11:40:26.540Z,955.64
2018-02-17T11:41:26.499Z,955.59
2018-02-17T11:43:19.913Z,955.68
2018-02-17T11:44:19.899Z,955.67
2018-02-17T11:46:13.351Z,955.73
2018-02-17T11:47:13.255Z,955.75
2018-02-17T11:49:06.639Z,955.81
2018-02-17T11:50:06.640Z,955.82
2018-02-17T11:52:00.043Z,955.78
2018-02-17T11:53:00.032Z,955.78
2018-02-17T11:54:53.417Z,955.78
2018-02-17T11:55:53.419Z,955.77
2018-02-17T11:57:46.824Z,955.81
2018-02-17T11:58:46.799Z,955.83
2018-02-17T12:00:40.205Z,955.85
2018-02-17T12:01:40.219Z,955.84
2018-02-17T12:03:33.621Z,955.82
2018-02-17T12:04:33.580Z,955.81
2018-02-17T12:06:26.954Z,955.80
2018-02-17T12:07:26.955Z,955.79
2018-02-17T12:09:20.356Z,955.71
2018-02-17T12:10:20.338Z,955.70
2018-02-17T12:12:13.754Z,955.64
2018-02-17T12:13:13.720Z,955.67
2018-02-17T12:15:07.102Z,955.58
2018-02-17T12:16:07.104Z,955.59
2018-02-17T12:18:00.506Z,955.54
2018-02-17T12:19:00.487Z,955.58
2018-02-17T12:20:53.871Z,955.61
2018-02-17T12:21:53.872Z,955.61
2018-02-17T12:23:47.271Z,955.62
2018-02-17T12:24:47.254Z,955.63
2018-02-17T12:26:40.654Z,955.63
2018-02-17T12:27:40.639Z,955.64
2018-02-17T12:29:34.039Z,955.63
2018-02-17T12:30:34.026Z,955.60
2018-02-17T12:32:27.402Z,955.63
2018-02-17T12:33:27.407Z,955.60
2018-02-17T12:35:20.808Z,955.58
2018-02-17T12:36:20.786Z,955.66
2018-02-17T12:38:14.170Z,955.59
2018-02-17T12:39:14.168Z,955.59
2018-02-17T12:41:07.574Z,955.53
2018-02-17T12:42:07.553Z,955.51
2018-02-17T12:44:00.934Z,955.52
2018-02-17T12:45:00.936Z,955.48
2018-02-17T12:46:54.338Z,955.45
2018-02-17T12:47:54.318Z,955.45
2018-02-17T12:49:48.706Z,955.43
2018-02-17T12:50:48.702Z,955.47
2018-02-17T12:52:42.108Z,955.42
2018-02-17T12:53:42.082Z,955.47
2018-02-17T12:55:35.476Z,955.36
2018-02-17T12:56:35.465Z,955.32
2018-02-17T12:58:28.890Z,955.29
2018-02-17T12:59:28.876Z,955.26
2018-02-17T13:01:22.272Z,955.18
2018-02-17T13:02:22.241Z,955.18
2018-02-17T13:04:15.624Z,955.14
2018-02-17T13:05:15.627Z,955.10
2018-02-17T13:07:09.027Z,955.08
2018-02-17T13:08:09.010Z,955.07
2018-02-17T13:10:02.391Z,955.09
2018-02-17T13:11:02.392Z,955.06
2018-02-17T13:12:55.799Z,954.97
2018-02-17T13:13:55.776Z,954.98
2018-02-17T13:15:49.161Z,954.92
2018-02-17T13:16:49.158Z,954.98
2018-02-17T13:18:42.558Z,954.96
2018-02-17T13:19:42.558Z,954.98
2018-02-17T13:21:35.926Z,955.00
2018-02-17T13:22:35.924Z,955.03
2018-02-17T13:24:29.340Z,955.05
2018-02-17T13:25:29.318Z,955.08
2018-02-17T13:27:22.716Z,955.07
2018-02-17T13:28:22.715Z,955.02
2018-02-17T13:30:16.117Z,955.01
2018-02-17T13:31:16.098Z,954.97
2018-02-17T13:33:09.476Z,955.04
2018-02-17T13:34:09.482Z,955.09
2018-02-17T13:36:02.882Z,955.15
2018-02-17T13:37:02.887Z,955.12
2018-02-17T13:38:56.250Z,955.15
2018-02-17T13:39:56.247Z,955.13
2018-02-17T13:41:49.648Z,955.13
2018-02-17T13:42:49.652Z,955.16
2018-02-17T13:44:43.039Z,955.17
2018-02-17T13:45:43.014Z,955.15
2018-02-17T13:47:36.395Z,955.13
2018-02-17T13:48:36.396Z,955.10
2018-02-17T13:50:29.803Z,955.13
2018-02-17T13:51:29.784Z,955.08
2018-02-17T13:53:23.166Z,955.12
2018-02-17T13:54:23.236Z,955.12
2018-02-17T13:56:16.570Z,955.14
2018-02-17T13:57:16.558Z,955.17
2018-02-17T13:59:09.938Z,955.18
2018-02-17T14:00:09.939Z,955.17
2018-02-17T14:02:03.336Z,955.15
2018-02-17T14:03:03.323Z,955.10
2018-02-17T14:04:56.703Z,955.11
2018-02-17T14:05:56.711Z,955.06
2018-02-17T14:07:50.117Z,955.08
2018-02-17T14:08:50.108Z,955.09
2018-02-17T14:10:43.503Z,955.17
2018-02-17T14:11:43.484Z,955.19
2018-02-17T14:13:36.874Z,955.17
2018-02-17T14:14:36.861Z,955.19
2018-02-17T14:16:30.265Z,955.18
2018-02-17T14:17:30.268Z,955.18
2018-02-17T14:19:23.670Z,955.18
2018-02-17T14:20:23.650Z,955.18
2018-02-17T14:22:17.044Z,955.15
2018-02-17T14:23:17.052Z,955.18
2018-02-17T14:25:10.454Z,955.23
2018-02-17T14:26:10.646Z,955.23
2018-02-17T14:28:03.816Z,955.25
2018-02-17T14:29:03.813Z,955.26
2018-02-17T14:30:57.217Z,955.33
2018-02-17T14:31:57.213Z,955.32
2018-02-17T14:33:50.612Z,955.36
2018-02-17T14:34:50.580Z,955.36
2018-02-17T14:36:43.981Z,955.38
2018-02-17T14:37:43.972Z,955.37
2018-02-17T14:39:37.406Z,955.36
2018-02-17T14:40:37.363Z,955.40
2018-02-17T14:42:30.811Z,955.37
2018-02-17T14:43:30.791Z,955.41
2018-02-17T14:45:24.190Z,955.41
2018-02-17T14:46:24.177Z,955.45
2018-02-17T14:48:17.559Z,955.44
2018-02-17T14:49:17.584Z,955.44
2018-02-17T14:51:10.956Z,955.48
2018-02-17T14:52:10.937Z,955.50
2018-02-17T14:54:04.390Z,955.51
2018-02-17T14:55:04.385Z,955.48
2018-02-17T14:56:57.763Z,955.47
2018-02-17T14:57:57.735Z,955.49
2018-02-17T14:59:51.135Z,955.51
2018-02-17T15:00:51.132Z,955.53
2018-02-17T15:02:44.539Z,955.52
2018-02-17T15:03:44.517Z,955.54
2018-02-17T15:05:37.901Z,955.58
2018-02-17T15:06:37.902Z,955.59
2018-02-17T15:08:31.310Z,955.58
2018-02-17T15:09:31.318Z,955.57
2018-02-17T15:11:24.687Z,955.61
2018-02-17T15:12:24.679Z,955.58
2018-02-17T15:14:18.090Z,955.61
2018-02-17T15:15:18.068Z,955.63
2018-02-17T15:17:11.471Z,955.68
2018-02-17T15:18:11.455Z,955.65
2018-02-17T15:20:04.849Z,955.72
2018-02-17T15:21:04.836Z,955.71
2018-02-17T15:22:58.300Z,955.71
2018-02-17T15:23:58.272Z,955.77
2018-02-17T15:25:51.704Z,955.73
2018-02-17T15:26:51.683Z,955.75
2018-02-17T15:28:45.079Z,955.76
2018-02-17T15:29:45.085Z,955.79
2018-02-17T15:31:38.441Z,955.79
2018-02-17T15:32:38.467Z,955.82
2018-02-17T15:34:31.863Z,955.84
2018-02-17T15:35:31.864Z,955.81
2018-02-17T15:37:25.268Z,955.80
2018-02-17T15:38:25.286Z,955.83
2018-02-17T15:40:18.680Z,955.84
2018-02-17T15:41:18.686Z,955.87
2018-02-17T15:43:12.068Z,955.88
2018-02-17T15:44:12.083Z,955.93
2018-02-17T15:46:05.448Z,955.97
2018-02-17T15:47:05.430Z,955.95
2018-02-17T15:48:58.827Z,955.99
2018-02-17T15:49:58.849Z,956.02
2018-02-17T15:51:53.305Z,956.03
2018-02-17T15:52:53.243Z,956.08
2018-02-17T15:54:46.607Z,956.13
2018-02-17T15:55:46.630Z,956.13
2018-02-17T15:57:40.006Z,956.14
2018-02-17T15:58:39.989Z,956.17
2018-02-17T16:00:33.373Z,956.21
2018-02-17T16:01:33.377Z,956.22
2018-02-17T16:03:26.771Z,956.25
2018-02-17T16:04:26.752Z,956.20
2018-02-17T16:06:20.147Z,956.23
2018-02-17T16:07:20.142Z,956.25
2018-02-17T16:09:13.539Z,956.31
2018-02-17T16:10:13.525Z,956.35
2018-02-17T16:12:06.931Z,956.38
2018-02-17T16:13:06.909Z,956.37
2018-02-17T16:15:00.295Z,956.45
2018-02-17T16:16:00.291Z,956.42
2018-02-17T16:17:54.693Z,956.44
2018-02-17T16:18:54.698Z,956.42
2018-02-17T16:20:48.261Z,956.43
2018-02-17T16:21:48.308Z,956.47
2018-02-17T16:23:41.672Z,956.47
2018-02-17T16:24:41.653Z,956.48
2018-02-17T16:26:35.026Z,956.51
2018-02-17T16:27:35.032Z,956.53
2018-02-17T16:29:28.439Z,956.53
2018-02-17T16:30:28.454Z,956.56
2018-02-17T16:32:21.817Z,956.60
2018-02-17T16:33:21.813Z,956.63
2018-02-17T16:35:15.215Z,956.69
2018-02-17T16:36:15.198Z,956.71
2018-02-17T16:38:08.582Z,956.73
2018-02-17T16:39:08.590Z,956.72
2018-02-17T16:41:02.002Z,956.73
2018-02-17T16:42:01.971Z,956.76
2018-02-17T16:43:55.395Z,956.77
2018-02-17T16:44:55.345Z,956.80
2018-02-17T16:46:48.726Z,956.82
2018-02-17T16:47:48.759Z,956.83
2018-02-17T16:49:42.125Z,956.84
2018-02-17T16:50:42.128Z,956.86
2018-02-17T16:52:35.519Z,956.94
2018-02-17T16:53:35.502Z,956.92
2018-02-17T16:55:28.889Z,956.96
2018-02-17T16:56:28.868Z,956.98
2018-02-17T16:58:23.300Z,957.03
2018-02-17T16:59:23.272Z,957.08
2018-02-17T17:01:17.690Z,957.13
2018-02-17T17:02:17.678Z,957.19
2018-02-17T17:04:11.025Z,957.22
2018-02-17T17:05:11.048Z,957.22
2018-02-17T17:07:04.439Z,957.29
2018-02-17T17:08:04.425Z,957.28
2018-02-17T17:09:58.637Z,957.34
2018-02-17T17:10:59.558Z,957.35
2018-02-17T17:12:51.287Z,957.51
2018-02-17T17:13:51.322Z,957.44
2018-02-17T17:15:45.673Z,957.52
2018-02-17T17:16:45.651Z,957.54
2018-02-17T17:18:39.087Z,957.59
2018-02-17T17:19:39.035Z,957.61
2018-02-17T17:21:32.443Z,957.59
2018-02-17T17:22:32.420Z,957.63
2018-02-17T17:24:25.803Z,957.67
2018-02-17T17:25:25.800Z,957.69
2018-02-17T17:27:19.200Z,957.73
2018-02-17T17:28:19.176Z,957.76
2018-02-17T17:30:13.625Z,957.75
2018-02-17T17:31:13.555Z,957.83
2018-02-17T17:33:06.990Z,957.82
2018-02-17T17:34:06.939Z,957.81
2018-02-17T17:36:00.328Z,957.79
2018-02-17T17:37:00.373Z,957.82
2018-02-17T17:38:53.722Z,957.89
2018-02-17T17:39:53.725Z,957.88
2018-02-17T17:41:47.089Z,957.90
2018-02-17T17:42:47.107Z,957.88
2018-02-17T17:44:40.493Z,957.92
2018-02-17T17:45:40.486Z,957.92
2018-02-17T17:47:34.884Z,957.97
2018-02-17T17:48:34.856Z,957.98
2018-02-17T17:50:28.255Z,958.01
2018-02-17T17:51:28.234Z,958.04
2018-02-17T17:53:21.634Z,958.08
2018-02-17T17:54:21.624Z,958.07
2018-02-17T17:56:15.016Z,958.08
2018-02-17T17:57:14.993Z,958.09
2018-02-17T17:59:08.372Z,958.10
2018-02-17T18:00:08.398Z,958.12
2018-02-17T18:02:01.771Z,958.11